Time;durP1;ratioP1;P1;durP2;ratioP2;P2;SDS_P1;SDS_P2;PMS_P1;PMS_P2;Temp;Humidity;BMP_temperature;BMP_pressure;BME280_temperature;BME280_humidity;BME280_pressure;Samples;Min_cycle;Max_cycle;Signal;HPM_P1;HPM_P2
2022/11/24 00:02:33;;;;;;;;;;;;;;;;;;10351885;28;20377;-65
2022/11/24 00:07:35;;;;;;;;;;;;;;;;;;10334584;28;20400;-65
2022/11/24 00:12:37;;;;;;;;;;;;;;;;;;10348893;28;20519;-65
2022/11/24 00:17:39;;;;;;;;;;;;;;;;;;10359368;28;19956;-65
2022/11/24 00:50:54;;;;;;;;;;;;;;;;;;10373779;28;20012;-65
2022/11/24 00:55:56;;;;;;;;;;;;;;;;;;10374865;28;19952;-65
2022/11/24 01:00:58;;;;;;;;;;;;;;;;;;10344466;28;19976;-65
2022/11/24 01:06:00;;;;;;;;;;;;;;;;;;10348616;28;20258;-65
2022/11/24 01:11:02;;;;;;;;;;;;;;;;;;10334201;28;19929;-65
2022/11/24 01:16:04;;;;;;;;;;;;;;;;;;10333984;28;19953;-65
2022/11/24 01:21:07;;;;;;;;;;;;;;;;;;10348924;28;20013;-65
2022/11/24 01:26:11;;;;;;;;;;;;;;;;;;10347200;28;19929;-65
2022/11/24 01:31:13;;;;;;;;;;;;;;;;;;10381569;28;19925;-65
2022/11/24 01:36:15;;;;;;;;;;;;;;;;;;10381325;28;20024;-65
2022/11/24 01:41:17;;;;;;;;;;;;;;;;;;10358883;28;19926;-65
2022/11/24 01:46:19;;;;;;;;;;;;;;;;;;10350245;28;19979;-65
2022/11/24 01:51:22;;;;;;;;;;;;;;;;;;10380692;28;19926;-65
2022/11/24 01:56:24;;;;;;;;;;;;;;;;;;10379735;28;20431;-65
2022/11/24 02:01:27;;;;;;;;;;;;;;;;;;10380307;28;19929;-65
2022/11/24 02:06:30;;;;;;;;;;;;;;;;;;10366472;28;19933;-65
2022/11/24 02:11:32;;;;;;;;;;;;;;;;;;10339502;28;19926;-65
2022/11/24 02:16:34;;;;;;;;;;;;;;;;;;10339241;28;19988;-65
2022/11/24 02:21:36;;;;;;;;;;;;;;;;;;10353980;28;19929;-65
2022/11/24 02:26:38;;;;;;;;;;;;;;;;;;10363226;28;19930;-65
2022/11/24 02:31:40;;;;;;;;;;;;;;;;;;10338026;28;20393;-65
2022/11/24 02:36:42;;;;;;;;;;;;;;;;;;10373130;28;19926;-65
2022/11/24 02:41:44;;;;;;;;;;;;;;;;;;10379000;28;19926;-65
2022/11/24 02:46:46;;;;;;;;;;;;;;;;;;10378140;28;19926;-65
2022/11/24 02:51:48;;;;;;;;;;;;;;;;;;10377799;28;20377;-65
2022/11/24 02:56:50;;;;;;;;;;;;;;;;;;10378244;28;19971;-65
2022/11/24 03:01:52;;;;;;;;;;;;;;;;;;10377632;28;19926;-65
2022/11/24 03:06:55;;;;;;;;;;;;;;;;;;10377159;28;19969;-65
2022/11/24 03:11:57;;;;;;;;;;;;;;;;;;10377638;28;19980;-65
2022/11/24 03:16:59;;;;;;;;;;;;;;;;;;10376850;28;20336;-65
2022/11/24 03:22:01;;;;;;;;;;;;;;;;;;10376285;28;19929;-65
2022/11/24 03:27:03;;;;;;;;;;;;;;;;;;10351657;28;19925;-65
2022/11/24 03:32:05;;;;;;;;;;;;;;;;;;10335983;28;20336;-65
2022/11/24 03:37:07;;;;;;;;;;;;;;;;;;10336237;28;19925;-65
2022/11/24 03:42:09;;;;;;;;;;;;;;;;;;10336611;28;19952;-65
2022/11/24 03:47:11;;;;;;;;;;;;;;;;;;10375549;28;20044;-65
2022/11/24 03:52:14;;;;;;;;;;;;;;;;;;10376292;28;19940;-65
2022/11/24 03:57:16;;;;;;;;;;;;;;;;;;10374344;28;19980;-65
2022/11/24 04:02:18;;;;;;;;;;;;;;;;;;10375288;28;20365;-65
2022/11/24 04:07:20;;;;;;;;;;;;;;;;;;10374713;28;19925;-65
2022/11/24 04:17:43;;;;;;;;;;;;;;;;;;10375049;28;19929;-65
2022/11/24 04:22:45;;;;;;;;;;;;;;;;;;10374786;28;19925;-65
2022/11/24 04:27:47;;;;;;;;;;;;;;;;;;10375011;28;19979;-65
2022/11/24 04:32:49;;;;;;;;;;;;;;;;;;10374722;28;20384;-65
2022/11/24 04:37:51;;;;;;;;;;;;;;;;;;10375223;28;19926;-65
2022/11/24 04:42:54;;;;;;;;;;;;;;;;;;10372600;28;19925;-65
2022/11/24 04:47:56;;;;;;;;;;;;;;;;;;10374424;28;20377;-65
2022/11/24 04:52:58;;;;;;;;;;;;;;;;;;10374554;28;19925;-65
2022/11/24 04:58:00;;;;;;;;;;;;;;;;;;10378622;28;19925;-65
2022/11/24 05:03:02;;;;;;;;;;;;;;;;;;10382014;28;19926;-65
2022/11/24 05:08:04;;;;;;;;;;;;;;;;;;10366726;28;19926;-65
2022/11/24 05:13:06;;;;;;;;;;;;;;;;;;10341058;28;20325;-65
2022/11/24 05:18:08;;;;;;;;;;;;;;;;;;10340986;28;19926;-65
2022/11/24 05:23:10;;;;;;;;;;;;;;;;;;10341494;28;19926;-65
2022/11/24 05:28:12;;;;;;;;;;;;;;;;;;10341219;28;19976;-65
2022/11/24 05:33:17;;;;;;;;;;;;;;;;;;10392048;22;19925;-67
2022/11/24 05:38:21;;;;;;;;;;;;;;;;;;10463517;28;19970;-67
2022/11/24 05:43:23;;;;;;;;;;;;;;;;;;10462061;28;19932;-67
2022/11/24 05:48:25;;;;;;;;;;;;;;;;;;10462103;28;19940;-66
2022/11/24 05:53:27;;;;;;;;;;;;;;;;;;10461986;28;19931;-66
2022/11/24 05:58:29;;;;;;;;;;;;;;;;;;10462697;28;19928;-67
2022/11/24 06:03:31;;;;;;;;;;;;;;;;;;10461789;28;19925;-66
2022/11/24 06:08:34;;;;;;;;;;;;;;;;;;10460370;28;19925;-67
2022/11/24 06:13:36;;;;;;;;;;;;;;;;;;10460355;28;19951;-66
2022/11/24 06:18:38;;;;;;;;;;;;;;;;;;10420109;28;20288;-67
2022/11/24 06:23:40;;;;;;;;;;;;;;;;;;10420441;28;19976;-67
2022/11/24 06:28:42;;;;;;;;;;;;;;;;;;10421400;28;19936;-67
2022/11/24 06:33:44;;;;;;;;;;;;;;;;;;10460952;28;19924;-67
2022/11/24 06:38:46;;;;;;;;;;;;;;;;;;10461161;28;19925;-67
2022/11/24 06:43:48;;;;;;;;;;;;;;;;;;10460005;28;19978;-67
2022/11/24 06:48:51;;;;;;;;;;;;;;;;;;10459860;28;19936;-67
2022/11/24 06:53:54;;;;;;;;;;;;;;;;;;10459161;28;20380;-67
2022/11/24 06:58:56;;;;;;;;;;;;;;;;;;10459754;28;19928;-67
2022/11/24 07:03:58;;;;;;;;;;;;;;;;;;10459456;28;19924;-67
2022/11/24 07:09:00;;;;;;;;;;;;;;;;;;10459209;28;19970;-67
2022/11/24 07:14:02;;;;;;;;;;;;;;;;;;10459129;28;19924;-67
2022/11/24 07:19:04;;;;;;;;;;;;;;;;;;10459293;28;19925;-67
2022/11/24 07:24:06;;;;;;;;;;;;;;;;;;10458135;28;19932;-67
2022/11/24 07:29:08;;;;;;;;;;;;;;;;;;10458092;28;20026;-66
2022/11/24 07:34:10;;;;;;;;;;;;;;;;;;10458199;28;19959;-67
2022/11/24 07:39:12;;;;;;;;;;;;;;;;;;10458213;28;19932;-67
2022/11/24 07:44:15;;;;;;;;;;;;;;;;;;10456732;28;19925;-67
2022/11/24 07:49:17;;;;;;;;;;;;;;;;;;10457357;28;19925;-67
2022/11/24 07:54:19;;;;;;;;;;;;;;;;;;10457624;28;20307;-67
2022/11/24 07:59:21;;;;;;;;;;;;;;;;;;10456920;28;19951;-67
2022/11/24 08:04:23;;;;;;;;;;;;;;;;;;10457908;28;19978;-67
2022/11/24 08:09:25;;;;;;;;;;;;;;;;;;10457089;28;19971;-67
2022/11/24 08:14:27;;;;;;;;;;;;;;;;;;10456840;28;20380;-67
2022/11/24 08:19:31;;;;;;;;;;;;;;;;;;10454794;28;19928;-67
2022/11/24 08:24:33;;;;;;;;;;;;;;;;;;10419363;28;19925;-67
2022/11/24 08:29:35;;;;;;;;;;;;;;;;;;10451342;28;19925;-67
2022/11/24 08:34:37;;;;;;;;;;;;;;;;;;10462624;28;19990;-67
2022/11/24 08:39:39;;;;;;;;;;;;;;;;;;10464379;28;19994;-67
2022/11/24 08:44:41;;;;;;;;;;;;;;;;;;10463851;28;19929;-67
2022/11/24 08:49:44;;;;;;;;;;;;;;;;;;10463237;28;20327;-66
2022/11/24 08:54:46;;;;;;;;;;;;;;;;;;10462500;28;20280;-67
2022/11/24 08:59:48;;;;;;;;;;;;;;;;;;10464260;28;19928;-67
2022/11/24 09:04:50;;;;;;;;;;;;;;;;;;10462961;28;19931;-67
2022/11/24 09:09:52;;;;;;;;;;;;;;;;;;10463218;28;20433;-66
2022/11/24 09:14:54;;;;;;;;;;;;;;;;;;10463595;28;19929;-66
2022/11/24 09:19:56;;;;;;;;;;;;;;;;;;10461457;28;20379;-67
2022/11/24 09:24:58;;;;;;;;;;;;;;;;;;10461826;28;19929;-67
2022/11/24 09:30:00;;;;;;;;;;;;;;;;;;10462211;28;19924;-67
2022/11/24 09:35:03;;;;;;;;;;;;;;;;;;10460696;28;19925;-67
2022/11/24 09:40:05;;;;;;;;;;;;;;;;;;10458150;28;19975;-67
2022/11/24 09:45:07;;;;;;;;;;;;;;;;;;10458630;28;19932;-67
2022/11/24 09:50:09;;;;;;;;;;;;;;;;;;10462284;28;19924;-67
2022/11/24 09:55:11;;;;;;;;;;;;;;;;;;10462875;28;19936;-67
2022/11/24 10:00:13;;;;;;;;;;;;;;;;;;10460354;28;19940;-67
2022/11/24 10:05:15;;;;;;;;;;;;;;;;;;10462404;28;19925;-67
2022/11/24 10:10:17;;;;;;;;;;;;;;;;;;10461634;28;19931;-67
2022/11/24 10:15:26;;;;;;;;;;;;;;;;;;10461152;28;19929;-67
2022/11/24 10:20:28;;;;;;;;;;;;;;;;;;10461224;28;20371;-67
2022/11/24 10:25:30;;;;;;;;;;;;;;;;;;10460127;28;19931;-67
2022/11/24 10:30:32;;;;;;;;;;;;;;;;;;10460782;28;19932;-67
2022/11/24 10:35:34;;;;;;;;;;;;;;;;;;10460622;28;19929;-67
2022/11/24 10:40:37;;;;;;;;;;;;;;;;;;10460140;28;19925;-67
2022/11/24 10:45:59;;;;;;;;;;;;;;;;;;10460068;28;20039;-67
2022/11/24 10:51:01;;;;;;;;;;;;;;;;;;10459952;28;20438;-67
2022/11/24 10:56:03;;;;;;;;;;;;;;;;;;10459095;28;19931;-67
2022/11/24 11:01:05;;;;;;;;;;;;;;;;;;10458634;28;19932;-67
2022/11/24 11:06:07;;;;;;;;;;;;;;;;;;10460084;28;19932;-67
2022/11/24 11:11:10;;;;;;;;;;;;;;;;;;10459352;28;19925;-67
2022/11/24 11:16:12;;;;;;;;;;;;;;;;;;10458326;28;19928;-67
2022/11/24 11:21:14;;;;;;;;;;;;;;;;;;10457042;28;19925;-67
2022/11/24 11:26:16;;;;;;;;;;;;;;;;;;10459236;28;19925;-67
2022/11/24 11:31:18;;;;;;;;;;;;;;;;;;10457517;28;19932;-67
2022/11/24 11:36:22;;;;;;;;;;;;;;;;;;10456129;28;19936;-67
2022/11/24 11:41:24;;;;;;;;;;;;;;;;;;10456488;28;20284;-67
2022/11/24 11:46:26;;;;;;;;;;;;;;;;;;10457703;28;20384;-67
2022/11/24 11:51:28;;;;;;;;;;;;;;;;;;10457414;28;19925;-67
2022/11/24 11:56:31;;;;;;;;;;;;;;;;;;10456862;28;19936;-67
2022/11/24 12:01:33;;;;;;;;;;;;;;;;;;10456104;28;19925;-67
2022/11/24 12:06:35;;;;;;;;;;;;;;;;;;10454307;28;20345;-67
2022/11/24 12:11:37;;;;;;;;;;;;;;;;;;10454626;28;19928;-67
2022/11/24 12:16:39;;;;;;;;;;;;;;;;;;10453618;28;20323;-67
2022/11/24 12:21:41;;;;;;;;;;;;;;;;;;10455026;28;19933;-67
2022/11/24 12:26:43;;;;;;;;;;;;;;;;;;10457366;28;19925;-65
2022/11/24 12:31:45;;;;;;;;;;;;;;;;;;10456315;28;19925;-63
2022/11/24 12:36:47;;;;;;;;;;;;;;;;;;10454958;28;19964;-64
2022/11/24 12:41:50;;;;;;;;;;;;;;;;;;10457301;28;19931;-65
2022/11/24 12:46:52;;;;;;;;;;;;;;;;;;10456445;28;19928;-67
2022/11/24 12:51:54;;;;;;;;;;;;;;;;;;10456931;28;19951;-67
2022/11/24 12:56:56;;;;;;;;;;;;;;;;;;10456837;28;19971;-67
2022/11/24 13:01:58;;;;;;;;;;;;;;;;;;10443584;28;19928;-66
2022/11/24 13:07:00;;;;;;;;;;;;;;;;;;10456585;28;19925;-66
2022/11/24 13:12:02;;;;;;;;;;;;;;;;;;10456613;28;19928;-65
2022/11/24 13:17:04;;;;;;;;;;;;;;;;;;10456820;28;19931;-65
2022/11/24 13:22:26;;;;;;;;;;;;;;;;;;10463876;28;20003;-65
2022/11/24 13:27:29;;;;;;;;;;;;;;;;;;10464105;28;19951;-65
2022/11/24 13:32:31;;;;;;;;;;;;;;;;;;10463844;28;19929;-65
2022/11/24 13:37:33;;;;;;;;;;;;;;;;;;10462568;28;19925;-65
2022/11/24 13:42:37;;;;;;;;;;;;;;;;;;10462455;28;19925;-65
2022/11/24 13:47:44;;;;;;;;;;;;;;;;;;10458953;28;19928;-65
2022/11/24 13:52:46;;;;;;;;;;;;;;;;;;10462958;28;19925;-65
2022/11/24 13:57:48;;;;;;;;;;;;;;;;;;10462917;28;19931;-65
2022/11/24 14:02:50;;;;;;;;;;;;;;;;;;10460762;28;20269;-65
2022/11/24 14:07:52;;;;;;;;;;;;;;;;;;10460858;28;19929;-65
2022/11/24 14:12:54;;;;;;;;;;;;;;;;;;10423691;28;20016;-65
2022/11/24 14:17:56;;;;;;;;;;;;;;;;;;10439420;28;20442;-65
2022/11/24 14:22:59;;;;;;;;;;;;;;;;;;10461775;28;19933;-65
2022/11/24 14:28:01;;;;;;;;;;;;;;;;;;10460732;28;19925;-65
2022/11/24 14:33:03;;;;;;;;;;;;;;;;;;10459155;28;20394;-66
2022/11/24 14:38:05;;;;;;;;;;;;;;;;;;10458202;28;19925;-65
2022/11/24 14:43:07;;;;;;;;;;;;;;;;;;10459988;28;19943;-65
2022/11/24 14:48:10;;;;;;;;;;;;;;;;;;10457589;28;19925;-68
2022/11/24 14:53:12;;;;;;;;;;;;;;;;;;10459828;28;19936;-68
2022/11/24 14:58:14;;;;;;;;;;;;;;;;;;10459819;28;20376;-68
2022/11/24 15:03:16;;;;;;;;;;;;;;;;;;10460256;28;19929;-68
2022/11/24 15:08:18;;;;;;;;;;;;;;;;;;10457314;28;20265;-68
2022/11/24 15:13:20;;;;;;;;;;;;;;;;;;10458155;28;19925;-68
2022/11/24 15:18:22;;;;;;;;;;;;;;;;;;10458158;28;19928;-68
2022/11/24 15:23:24;;;;;;;;;;;;;;;;;;10458571;28;19924;-66
2022/11/24 15:28:26;;;;;;;;;;;;;;;;;;10458375;28;19925;-65
2022/11/24 15:33:28;;;;;;;;;;;;;;;;;;10458944;28;19925;-65
2022/11/24 15:38:30;;;;;;;;;;;;;;;;;;10458865;28;19925;-65
2022/11/24 15:43:32;;;;;;;;;;;;;;;;;;10456053;28;19928;-65
2022/11/24 15:48:34;;;;;;;;;;;;;;;;;;10457910;28;19925;-65
2022/11/24 15:53:36;;;;;;;;;;;;;;;;;;10458374;28;19951;-65
2022/11/24 15:58:38;;;;;;;;;;;;;;;;;;10456220;28;19925;-65
2022/11/24 16:03:41;;;;;;;;;;;;;;;;;;10455911;28;20391;-65
2022/11/24 16:08:48;;;;;;;;;;;;;;;;;;10455904;28;19971;-65
2022/11/24 16:13:50;;;;;;;;;;;;;;;;;;10455109;28;19978;-65
2022/11/24 16:18:54;;;;;;;;;;;;;;;;;;10456689;28;20376;-65
2022/11/24 16:23:56;;;;;;;;;;;;;;;;;;10457147;28;19925;-65
2022/11/24 16:28:58;;;;;;;;;;;;;;;;;;10457416;28;19925;-65
2022/11/24 16:34:01;;;;;;;;;;;;;;;;;;10455756;28;19925;-65
2022/11/24 16:39:03;;;;;;;;;;;;;;;;;;10456966;28;19928;-65
2022/11/24 16:44:05;;;;;;;;;;;;;;;;;;10452904;28;19925;-65
2022/11/24 16:49:07;;;;;;;;;;;;;;;;;;10455205;28;19975;-65
2022/11/24 16:54:10;;;;;;;;;;;;;;;;;;10458873;28;19947;-65
2022/11/24 16:59:12;;;;;;;;;;;;;;;;;;10435715;28;19932;-65
2022/11/24 17:04:14;;;;;;;;;;;;;;;;;;10423030;28;19925;-65
2022/11/24 17:09:17;;;;;;;;;;;;;;;;;;10453099;28;20426;-65
2022/11/24 17:14:19;;;;;;;;;;;;;;;;;;10464043;28;19925;-65
2022/11/24 17:19:21;;;;;;;;;;;;;;;;;;10463622;28;19990;-65
2022/11/24 17:24:24;;;;;;;;;;;;;;;;;;10462026;28;19932;-65
2022/11/24 17:29:26;;;;;;;;;;;;;;;;;;10461720;28;19925;-65
2022/11/24 17:34:28;;;;;;;;;;;;;;;;;;10458379;28;19931;-65
2022/11/24 17:39:30;;;;;;;;;;;;;;;;;;10461788;28;19987;-65
2022/11/24 17:44:33;;;;;;;;;;;;;;;;;;10462047;28;19936;-65
2022/11/24 17:49:36;;;;;;;;;;;;;;;;;;10398782;22;19925;-64
2022/11/24 17:54:38;;;;;;;;;;;;;;;;;;10337663;28;19930;-64
2022/11/24 17:59:47;;;;;;;;;;;;;;;;;;10339352;28;19926;-64
2022/11/24 18:04:49;;;;;;;;;;;;;;;;;;10336403;28;19925;-64
2022/11/24 18:09:51;;;;;;;;;;;;;;;;;;10337307;28;20384;-63
2022/11/24 18:14:53;;;;;;;;;;;;;;;;;;10338545;28;19926;-64
2022/11/24 18:19:55;;;;;;;;;;;;;;;;;;10342911;28;19956;-63
2022/11/24 18:24:58;;;;;;;;;;;;;;;;;;10379017;28;19930;-64
2022/11/24 18:30:00;;;;;;;;;;;;;;;;;;10376685;28;20270;-64
2022/11/24 18:35:02;;;;;;;;;;;;;;;;;;10337278;28;19933;-64
2022/11/24 18:40:04;;;;;;;;;;;;;;;;;;10337860;28;19933;-64
2022/11/24 18:45:06;;;;;;;;;;;;;;;;;;10336453;28;19989;-63
2022/11/24 18:50:08;;;;;;;;;;;;;;;;;;10335829;28;19992;-63
2022/11/24 18:55:10;;;;;;;;;;;;;;;;;;10337202;28;19926;-64
2022/11/24 19:00:12;;;;;;;;;;;;;;;;;;10337021;28;19933;-64
2022/11/24 19:05:14;;;;;;;;;;;;;;;;;;10333150;28;20383;-64
2022/11/24 19:10:16;;;;;;;;;;;;;;;;;;10336174;28;19926;-64
2022/11/24 19:15:18;;;;;;;;;;;;;;;;;;10334225;28;19933;-64
2022/11/24 19:20:21;;;;;;;;;;;;;;;;;;10334032;28;20423;-64
2022/11/24 19:25:23;;;;;;;;;;;;;;;;;;10335400;28;19926;-64
2022/11/24 19:30:25;;;;;;;;;;;;;;;;;;10333533;28;19926;-64
2022/11/24 19:35:27;;;;;;;;;;;;;;;;;;10334588;28;19932;-64
2022/11/24 19:40:29;;;;;;;;;;;;;;;;;;10334823;28;19976;-64
2022/11/24 19:45:31;;;;;;;;;;;;;;;;;;10335237;28;19933;-64
2022/11/24 19:50:33;;;;;;;;;;;;;;;;;;10312548;28;19932;-64
2022/11/24 19:55:37;;;;;;;;;;;;;;;;;;10293246;28;20151;-64
2022/11/24 20:00:39;;;;;;;;;;;;;;;;;;10313991;28;19933;-63
2022/11/24 20:05:41;;;;;;;;;;;;;;;;;;10334055;28;20373;-63
2022/11/24 20:10:44;;;;;;;;;;;;;;;;;;10315924;28;20388;-64
2022/11/24 20:15:46;;;;;;;;;;;;;;;;;;10293851;28;19941;-64
2022/11/24 20:20:48;;;;;;;;;;;;;;;;;;10293286;28;20270;-63
2022/11/24 20:25:50;;;;;;;;;;;;;;;;;;10291510;28;19926;-63
2022/11/24 20:30:52;;;;;;;;;;;;;;;;;;10313636;28;19933;-63
2022/11/24 20:35:54;;;;;;;;;;;;;;;;;;10307751;28;20348;-64
2022/11/24 20:40:56;;;;;;;;;;;;;;;;;;10330017;28;19948;-64
2022/11/24 20:45:58;;;;;;;;;;;;;;;;;;10331220;28;19933;-64
2022/11/24 20:51:01;;;;;;;;;;;;;;;;;;10329238;28;19932;-64
2022/11/24 20:56:03;;;;;;;;;;;;;;;;;;10333682;28;19981;-63
2022/11/24 21:01:07;;;;;;;;;;;;;;;;;;10299245;28;20336;-63
2022/11/24 21:06:09;;;;;;;;;;;;;;;;;;10294740;28;19926;-64
2022/11/24 21:11:11;;;;;;;;;;;;;;;;;;10333378;28;19953;-64
2022/11/24 21:16:13;;;;;;;;;;;;;;;;;;10283349;28;19934;-64
2022/11/24 21:21:16;;;;;;;;;;;;;;;;;;10292369;28;20374;-64
2022/11/24 21:26:18;;;;;;;;;;;;;;;;;;10292653;28;19926;-63
2022/11/24 21:31:20;;;;;;;;;;;;;;;;;;10291094;28;20295;-64
2022/11/24 21:36:22;;;;;;;;;;;;;;;;;;10292879;28;19954;-63
2022/11/24 21:41:24;;;;;;;;;;;;;;;;;;10298101;28;19937;-64
2022/11/24 21:46:26;;;;;;;;;;;;;;;;;;10333113;28;19930;-63
2022/11/24 21:51:28;;;;;;;;;;;;;;;;;;10336586;28;19926;-63
2022/11/24 21:56:30;;;;;;;;;;;;;;;;;;10306951;28;19930;-64
2022/11/24 22:01:33;;;;;;;;;;;;;;;;;;10329572;28;19932;-63
2022/11/24 22:06:35;;;;;;;;;;;;;;;;;;10297400;28;19985;-63
2022/11/24 22:11:37;;;;;;;;;;;;;;;;;;10298969;28;19926;-63
2022/11/24 22:16:39;;;;;;;;;;;;;;;;;;10297716;28;20300;-63
2022/11/24 22:21:42;;;;;;;;;;;;;;;;;;10297879;28;19980;-63
2022/11/24 22:26:44;;;;;;;;;;;;;;;;;;10296873;28;20408;-64
2022/11/24 22:31:46;;;;;;;;;;;;;;;;;;10298210;28;19926;-63
2022/11/24 22:36:48;;;;;;;;;;;;;;;;;;10323829;28;20017;-63
2022/11/24 22:41:50;;;;;;;;;;;;;;;;;;10338632;28;19976;-63
2022/11/24 22:46:52;;;;;;;;;;;;;;;;;;10297988;28;19933;-64
2022/11/24 22:51:54;;;;;;;;;;;;;;;;;;10332807;28;19930;-63
2022/11/24 22:56:56;;;;;;;;;;;;;;;;;;10337655;28;19953;-63
2022/11/24 23:01:58;;;;;;;;;;;;;;;;;;10337367;28;19977;-64
2022/11/24 23:07:00;;;;;;;;;;;;;;;;;;10336932;28;19926;-64
2022/11/24 23:12:02;;;;;;;;;;;;;;;;;;10336048;28;19925;-64
2022/11/24 23:17:04;;;;;;;;;;;;;;;;;;10336342;28;19937;-63
2022/11/24 23:22:06;;;;;;;;;;;;;;;;;;10336974;28;19976;-63
2022/11/24 23:27:09;;;;;;;;;;;;;;;;;;10336850;28;19933;-64
2022/11/24 23:32:11;;;;;;;;;;;;;;;;;;10335508;28;19926;-64
2022/11/24 23:37:13;;;;;;;;;;;;;;;;;;10335743;28;19926;-64
2022/11/24 23:42:15;;;;;;;;;;;;;;;;;;10333935;28;20344;-64
2022/11/24 23:47:17;;;;;;;;;;;;;;;;;;10335908;28;19976;-64
2022/11/24 23:52:19;;;;;;;;;;;;;;;;;;10333902;28;20380;-63
2022/11/24 23:57:21;;;;;;;;;;;;;;;;;;10335796;28;19925;-63
